sensor_id;sensor_type;location;lat;lon;timestamp;P1;durP1;ratioP1;P2;durP2;ratioP2
58972;SDS011;44750;52.040;7.472;2023-08-06T00:01:47;3.30;;;3.00;;
58972;SDS011;44750;52.040;7.472;2023-08-06T00:06:47;4.55;;;2.90;;
58972;SDS011;44750;52.040;7.472;2023-08-06T00:11:48;5.10;;;3.20;;
58972;SDS011;44750;52.040;7.472;2023-08-06T00:16:48;4.45;;;3.78;;
58972;SDS011;44750;52.040;7.472;2023-08-06T00:21:48;5.22;;;3.90;;
58972;SDS011;44750;52.040;7.472;2023-08-06T00:26:48;5.35;;;3.72;;
58972;SDS011;44750;52.040;7.472;2023-08-06T00:31:49;6.03;;;3.72;;
58972;SDS011;44750;52.040;7.472;2023-08-06T00:36:49;5.35;;;3.95;;
58972;SDS011;44750;52.040;7.472;2023-08-06T00:41:49;4.93;;;3.95;;
58972;SDS011;44750;52.040;7.472;2023-08-06T00:46:50;4.53;;;3.60;;
58972;SDS011;44750;52.040;7.472;2023-08-06T00:51:50;7.00;;;3.92;;
58972;SDS011;44750;52.040;7.472;2023-08-06T00:56:51;4.50;;;3.80;;
58972;SDS011;44750;52.040;7.472;2023-08-06T01:01:51;6.03;;;4.93;;
58972;SDS011;44750;52.040;7.472;2023-08-06T01:06:55;4.03;;;3.40;;
58972;SDS011;44750;52.040;7.472;2023-08-06T01:12:03;3.47;;;3.17;;
58972;SDS011;44750;52.040;7.472;2023-08-06T01:17:09;4.82;;;4.03;;
58972;SDS011;44750;52.040;7.472;2023-08-06T01:22:12;5.85;;;4.05;;
58972;SDS011;44750;52.040;7.472;2023-08-06T01:27:17;3.90;;;3.08;;
58972;SDS011;44750;52.040;7.472;2023-08-06T01:32:32;6.68;;;3.03;;
58972;SDS011;44750;52.040;7.472;2023-08-06T01:37:35;4.78;;;3.40;;
58972;SDS011;44750;52.040;7.472;2023-08-06T01:42:36;3.35;;;2.97;;
58972;SDS011;44750;52.040;7.472;2023-08-06T01:47:36;5.53;;;3.95;;
58972;SDS011;44750;52.040;7.472;2023-08-06T01:52:36;3.85;;;2.75;;
58972;SDS011;44750;52.040;7.472;2023-08-06T01:57:37;3.38;;;2.97;;
58972;SDS011;44750;52.040;7.472;2023-08-06T02:02:37;9.75;;;3.42;;
58972;SDS011;44750;52.040;7.472;2023-08-06T02:07:37;3.53;;;2.60;;
58972;SDS011;44750;52.040;7.472;2023-08-06T02:12:37;5.50;;;3.45;;
58972;SDS011;44750;52.040;7.472;2023-08-06T02:17:37;5.43;;;3.22;;
58972;SDS011;44750;52.040;7.472;2023-08-06T02:22:38;5.88;;;3.30;;
58972;SDS011;44750;52.040;7.472;2023-08-06T02:27:38;3.63;;;3.17;;
58972;SDS011;44750;52.040;7.472;2023-08-06T02:32:38;4.82;;;2.95;;
58972;SDS011;44750;52.040;7.472;2023-08-06T02:37:38;6.50;;;3.72;;
58972;SDS011;44750;52.040;7.472;2023-08-06T02:42:38;6.57;;;3.70;;
58972;SDS011;44750;52.040;7.472;2023-08-06T02:47:39;5.20;;;3.22;;
58972;SDS011;44750;52.040;7.472;2023-08-06T02:52:39;9.63;;;3.45;;
58972;SDS011;44750;52.040;7.472;2023-08-06T02:57:39;3.20;;;2.90;;
58972;SDS011;44750;52.040;7.472;2023-08-06T03:02:39;4.40;;;3.17;;
58972;SDS011;44750;52.040;7.472;2023-08-06T03:07:39;4.78;;;3.30;;
58972;SDS011;44750;52.040;7.472;2023-08-06T03:12:40;3.13;;;2.83;;
58972;SDS011;44750;52.040;7.472;2023-08-06T03:17:40;5.43;;;3.40;;
58972;SDS011;44750;52.040;7.472;2023-08-06T03:22:41;3.00;;;2.70;;
58972;SDS011;44750;52.040;7.472;2023-08-06T03:27:41;2.88;;;2.58;;
58972;SDS011;44750;52.040;7.472;2023-08-06T03:32:41;4.43;;;2.97;;
58972;SDS011;44750;52.040;7.472;2023-08-06T03:37:41;2.78;;;2.47;;
58972;SDS011;44750;52.040;7.472;2023-08-06T03:42:41;4.55;;;3.53;;
58972;SDS011;44750;52.040;7.472;2023-08-06T03:47:42;5.00;;;3.35;;
58972;SDS011;44750;52.040;7.472;2023-08-06T03:52:42;4.23;;;2.93;;
58972;SDS011;44750;52.040;7.472;2023-08-06T03:57:42;5.22;;;3.17;;
58972;SDS011;44750;52.040;7.472;2023-08-06T04:02:42;3.17;;;2.67;;
58972;SDS011;44750;52.040;7.472;2023-08-06T04:07:43;3.92;;;3.20;;
58972;SDS011;44750;52.040;7.472;2023-08-06T04:12:43;10.90;;;3.58;;
58972;SDS011;44750;52.040;7.472;2023-08-06T04:17:43;3.63;;;3.33;;
58972;SDS011;44750;52.040;7.472;2023-08-06T04:22:44;4.15;;;2.63;;
58972;SDS011;44750;52.040;7.472;2023-08-06T04:27:44;3.70;;;3.10;;
58972;SDS011;44750;52.040;7.472;2023-08-06T04:32:44;3.08;;;2.45;;
58972;SDS011;44750;52.040;7.472;2023-08-06T04:37:44;6.00;;;3.20;;
58972;SDS011;44750;52.040;7.472;2023-08-06T04:42:44;3.08;;;2.70;;
58972;SDS011;44750;52.040;7.472;2023-08-06T04:47:45;5.32;;;3.20;;
58972;SDS011;44750;52.040;7.472;2023-08-06T04:52:45;4.68;;;2.60;;
58972;SDS011;44750;52.040;7.472;2023-08-06T04:57:45;4.22;;;3.03;;
58972;SDS011;44750;52.040;7.472;2023-08-06T05:02:45;4.35;;;2.50;;
58972;SDS011;44750;52.040;7.472;2023-08-06T05:07:48;2.92;;;2.60;;
58972;SDS011;44750;52.040;7.472;2023-08-06T05:12:49;3.13;;;2.40;;
58972;SDS011;44750;52.040;7.472;2023-08-06T05:17:49;5.82;;;2.58;;
58972;SDS011;44750;52.040;7.472;2023-08-06T05:22:49;2.57;;;2.37;;
58972;SDS011;44750;52.040;7.472;2023-08-06T05:27:50;5.07;;;2.38;;
58972;SDS011;44750;52.040;7.472;2023-08-06T05:32:50;3.75;;;2.22;;
58972;SDS011;44750;52.040;7.472;2023-08-06T05:37:50;4.15;;;2.75;;
58972;SDS011;44750;52.040;7.472;2023-08-06T05:42:54;3.10;;;2.50;;
58972;SDS011;44750;52.040;7.472;2023-08-06T05:47:54;1.92;;;1.73;;
58972;SDS011;44750;52.040;7.472;2023-08-06T05:52:55;3.08;;;2.50;;
58972;SDS011;44750;52.040;7.472;2023-08-06T05:57:55;3.15;;;2.38;;
58972;SDS011;44750;52.040;7.472;2023-08-06T06:02:55;1.98;;;1.70;;
58972;SDS011;44750;52.040;7.472;2023-08-06T06:07:55;4.22;;;1.90;;
58972;SDS011;44750;52.040;7.472;2023-08-06T06:12:56;2.22;;;2.03;;
58972;SDS011;44750;52.040;7.472;2023-08-06T06:17:56;2.33;;;1.90;;
58972;SDS011;44750;52.040;7.472;2023-08-06T06:22:56;3.15;;;2.10;;
58972;SDS011;44750;52.040;7.472;2023-08-06T06:27:56;1.88;;;1.58;;
58972;SDS011;44750;52.040;7.472;2023-08-06T06:32:57;1.58;;;1.48;;
58972;SDS011;44750;52.040;7.472;2023-08-06T06:37:57;1.73;;;1.40;;
58972;SDS011;44750;52.040;7.472;2023-08-06T06:42:57;1.88;;;1.65;;
58972;SDS011;44750;52.040;7.472;2023-08-06T06:47:57;1.88;;;1.48;;
58972;SDS011;44750;52.040;7.472;2023-08-06T06:52:58;1.52;;;1.40;;
58972;SDS011;44750;52.040;7.472;2023-08-06T06:57:58;5.95;;;1.33;;
58972;SDS011;44750;52.040;7.472;2023-08-06T07:02:58;2.40;;;1.30;;
58972;SDS011;44750;52.040;7.472;2023-08-06T07:07:58;1.52;;;1.40;;
58972;SDS011;44750;52.040;7.472;2023-08-06T07:12:59;3.30;;;1.63;;
58972;SDS011;44750;52.040;7.472;2023-08-06T07:17:59;1.98;;;1.30;;
58972;SDS011;44750;52.040;7.472;2023-08-06T07:23:00;10.32;;;1.92;;
58972;SDS011;44750;52.040;7.472;2023-08-06T07:28:00;4.72;;;1.67;;
58972;SDS011;44750;52.040;7.472;2023-08-06T07:33:00;2.22;;;1.52;;
58972;SDS011;44750;52.040;7.472;2023-08-06T07:38:00;2.20;;;1.63;;
58972;SDS011;44750;52.040;7.472;2023-08-06T07:43:01;2.45;;;1.60;;
58972;SDS011;44750;52.040;7.472;2023-08-06T07:48:01;1.48;;;1.38;;
58972;SDS011;44750;52.040;7.472;2023-08-06T07:53:02;8.27;;;1.23;;
58972;SDS011;44750;52.040;7.472;2023-08-06T07:58:02;1.58;;;1.30;;
58972;SDS011;44750;52.040;7.472;2023-08-06T08:03:03;2.57;;;1.50;;
58972;SDS011;44750;52.040;7.472;2023-08-06T08:08:03;1.98;;;1.40;;
58972;SDS011;44750;52.040;7.472;2023-08-06T08:13:03;1.53;;;1.30;;
58972;SDS011;44750;52.040;7.472;2023-08-06T08:18:04;2.10;;;1.50;;
58972;SDS011;44750;52.040;7.472;2023-08-06T08:23:04;2.75;;;1.38;;
58972;SDS011;44750;52.040;7.472;2023-08-06T08:28:05;1.75;;;1.05;;
58972;SDS011;44750;52.040;7.472;2023-08-06T08:33:05;2.78;;;1.45;;
58972;SDS011;44750;52.040;7.472;2023-08-06T08:38:05;0.63;;;0.63;;
58972;SDS011;44750;52.040;7.472;2023-08-06T08:43:05;2.03;;;1.20;;
58972;SDS011;44750;52.040;7.472;2023-08-06T08:48:06;1.85;;;0.98;;
58972;SDS011;44750;52.040;7.472;2023-08-06T08:53:06;2.22;;;1.10;;
58972;SDS011;44750;52.040;7.472;2023-08-06T08:58:08;1.73;;;1.10;;
58972;SDS011;44750;52.040;7.472;2023-08-06T09:03:08;1.77;;;0.90;;
58972;SDS011;44750;52.040;7.472;2023-08-06T09:08:11;1.00;;;0.90;;
58972;SDS011;44750;52.040;7.472;2023-08-06T09:13:15;1.88;;;1.05;;
58972;SDS011;44750;52.040;7.472;2023-08-06T09:18:24;1.80;;;1.17;;
58972;SDS011;44750;52.040;7.472;2023-08-06T09:23:29;0.85;;;0.85;;
58972;SDS011;44750;52.040;7.472;2023-08-06T09:28:36;0.80;;;0.70;;
58972;SDS011;44750;52.040;7.472;2023-08-06T09:33:37;1.98;;;0.93;;
58972;SDS011;44750;52.040;7.472;2023-08-06T09:38:38;0.65;;;0.65;;
58972;SDS011;44750;52.040;7.472;2023-08-06T09:43:40;1.13;;;0.80;;
58972;SDS011;44750;52.040;7.472;2023-08-06T09:48:44;0.50;;;0.50;;
58972;SDS011;44750;52.040;7.472;2023-08-06T09:58:47;0.65;;;0.65;;
58972;SDS011;44750;52.040;7.472;2023-08-06T10:03:48;1.05;;;0.90;;
58972;SDS011;44750;52.040;7.472;2023-08-06T10:08:50;3.30;;;1.40;;
58972;SDS011;44750;52.040;7.472;2023-08-06T10:13:51;1.35;;;0.70;;
58972;SDS011;44750;52.040;7.472;2023-08-06T10:18:56;1.23;;;0.80;;
58972;SDS011;44750;52.040;7.472;2023-08-06T10:23:57;1.30;;;1.08;;
58972;SDS011;44750;52.040;7.472;2023-08-06T10:28:57;1.88;;;1.08;;
58972;SDS011;44750;52.040;7.472;2023-08-06T10:33:58;3.97;;;1.05;;
58972;SDS011;44750;52.040;7.472;2023-08-06T10:38:58;1.58;;;1.15;;
58972;SDS011;44750;52.040;7.472;2023-08-06T10:44:08;1.67;;;1.05;;
58972;SDS011;44750;52.040;7.472;2023-08-06T10:49:09;1.63;;;0.95;;
58972;SDS011;44750;52.040;7.472;2023-08-06T10:54:11;0.88;;;0.80;;
58972;SDS011;44750;52.040;7.472;2023-08-06T10:59:11;1.00;;;0.90;;
58972;SDS011;44750;52.040;7.472;2023-08-06T11:04:15;3.40;;;1.08;;
58972;SDS011;44750;52.040;7.472;2023-08-06T11:09:15;1.33;;;0.93;;
58972;SDS011;44750;52.040;7.472;2023-08-06T11:14:15;1.08;;;0.73;;
58972;SDS011;44750;52.040;7.472;2023-08-06T11:19:16;1.10;;;0.93;;
58972;SDS011;44750;52.040;7.472;2023-08-06T11:24:16;0.80;;;0.80;;
58972;SDS011;44750;52.040;7.472;2023-08-06T11:29:17;1.05;;;0.90;;
58972;SDS011;44750;52.040;7.472;2023-08-06T11:34:17;2.20;;;1.13;;
58972;SDS011;44750;52.040;7.472;2023-08-06T11:39:17;0.95;;;0.85;;
58972;SDS011;44750;52.040;7.472;2023-08-06T11:44:19;14.53;;;1.20;;
58972;SDS011;44750;52.040;7.472;2023-08-06T11:49:19;1.08;;;0.90;;
58972;SDS011;44750;52.040;7.472;2023-08-06T11:54:30;1.23;;;0.63;;
58972;SDS011;44750;52.040;7.472;2023-08-06T11:59:31;3.15;;;0.98;;
58972;SDS011;44750;52.040;7.472;2023-08-06T12:04:32;1.80;;;0.97;;
58972;SDS011;44750;52.040;7.472;2023-08-06T12:09:50;1.10;;;0.90;;
58972;SDS011;44750;52.040;7.472;2023-08-06T12:14:51;1.20;;;1.05;;
58972;SDS011;44750;52.040;7.472;2023-08-06T12:19:51;1.50;;;0.97;;
58972;SDS011;44750;52.040;7.472;2023-08-06T12:24:54;2.22;;;0.80;;
58972;SDS011;44750;52.040;7.472;2023-08-06T12:29:54;0.80;;;0.67;;
58972;SDS011;44750;52.040;7.472;2023-08-06T12:34:55;0.93;;;0.50;;
58972;SDS011;44750;52.040;7.472;2023-08-06T12:39:55;1.35;;;0.70;;
58972;SDS011;44750;52.040;7.472;2023-08-06T12:44:55;1.02;;;0.85;;
58972;SDS011;44750;52.040;7.472;2023-08-06T12:49:55;2.00;;;0.57;;
58972;SDS011;44750;52.040;7.472;2023-08-06T12:54:56;1.15;;;0.77;;
58972;SDS011;44750;52.040;7.472;2023-08-06T12:59:56;1.05;;;0.73;;
58972;SDS011;44750;52.040;7.472;2023-08-06T13:04:56;1.23;;;0.80;;
58972;SDS011;44750;52.040;7.472;2023-08-06T13:09:56;1.25;;;0.70;;
58972;SDS011;44750;52.040;7.472;2023-08-06T13:14:57;0.82;;;0.63;;
58972;SDS011;44750;52.040;7.472;2023-08-06T13:19:57;1.08;;;0.70;;
58972;SDS011;44750;52.040;7.472;2023-08-06T13:24:57;0.88;;;0.80;;
58972;SDS011;44750;52.040;7.472;2023-08-06T13:29:57;1.75;;;0.77;;
58972;SDS011;44750;52.040;7.472;2023-08-06T13:34:58;1.75;;;1.45;;
58972;SDS011;44750;52.040;7.472;2023-08-06T13:39:58;4.30;;;2.03;;
58972;SDS011;44750;52.040;7.472;2023-08-06T13:44:58;2.33;;;1.85;;
58972;SDS011;44750;52.040;7.472;2023-08-06T13:49:58;3.47;;;1.67;;
58972;SDS011;44750;52.040;7.472;2023-08-06T13:54:59;4.35;;;1.73;;
58972;SDS011;44750;52.040;7.472;2023-08-06T13:59:59;1.75;;;1.15;;
58972;SDS011;44750;52.040;7.472;2023-08-06T14:04:59;1.55;;;1.15;;
58972;SDS011;44750;52.040;7.472;2023-08-06T14:09:59;1.05;;;0.88;;
58972;SDS011;44750;52.040;7.472;2023-08-06T14:15:00;1.48;;;1.23;;
58972;SDS011;44750;52.040;7.472;2023-08-06T14:20:00;1.50;;;1.27;;
58972;SDS011;44750;52.040;7.472;2023-08-06T14:25:00;1.02;;;0.80;;
58972;SDS011;44750;52.040;7.472;2023-08-06T14:30:01;0.77;;;0.68;;
58972;SDS011;44750;52.040;7.472;2023-08-06T14:35:02;0.90;;;0.70;;
58972;SDS011;44750;52.040;7.472;2023-08-06T14:40:02;1.02;;;0.65;;
58972;SDS011;44750;52.040;7.472;2023-08-06T14:45:03;0.60;;;0.60;;
58972;SDS011;44750;52.040;7.472;2023-08-06T14:50:03;0.77;;;0.60;;
58972;SDS011;44750;52.040;7.472;2023-08-06T14:55:05;0.50;;;0.50;;
58972;SDS011;44750;52.040;7.472;2023-08-06T15:00:06;1.70;;;0.77;;
58972;SDS011;44750;52.040;7.472;2023-08-06T15:05:07;0.63;;;0.63;;
58972;SDS011;44750;52.040;7.472;2023-08-06T15:10:07;6.50;;;0.90;;
58972;SDS011;44750;52.040;7.472;2023-08-06T15:15:08;1.50;;;0.93;;
58972;SDS011;44750;52.040;7.472;2023-08-06T15:20:08;1.27;;;1.02;;
58972;SDS011;44750;52.040;7.472;2023-08-06T15:25:09;1.52;;;1.10;;
58972;SDS011;44750;52.040;7.472;2023-08-06T15:30:09;1.40;;;1.05;;
58972;SDS011;44750;52.040;7.472;2023-08-06T15:35:10;1.63;;;1.02;;
58972;SDS011;44750;52.040;7.472;2023-08-06T15:40:10;0.97;;;0.80;;
58972;SDS011;44750;52.040;7.472;2023-08-06T15:45:11;1.77;;;0.90;;
58972;SDS011;44750;52.040;7.472;2023-08-06T15:50:11;2.15;;;0.82;;
58972;SDS011;44750;52.040;7.472;2023-08-06T15:55:11;1.50;;;1.38;;
58972;SDS011;44750;52.040;7.472;2023-08-06T16:00:12;1.70;;;1.40;;
58972;SDS011;44750;52.040;7.472;2023-08-06T16:05:12;1.17;;;1.08;;
58972;SDS011;44750;52.040;7.472;2023-08-06T16:10:12;1.50;;;1.15;;
58972;SDS011;44750;52.040;7.472;2023-08-06T16:15:12;1.45;;;0.88;;
58972;SDS011;44750;52.040;7.472;2023-08-06T16:20:13;0.60;;;0.60;;
58972;SDS011;44750;52.040;7.472;2023-08-06T16:25:13;1.48;;;0.95;;
58972;SDS011;44750;52.040;7.472;2023-08-06T16:30:13;0.70;;;0.60;;
58972;SDS011;44750;52.040;7.472;2023-08-06T16:35:14;1.70;;;1.10;;
58972;SDS011;44750;52.040;7.472;2023-08-06T16:40:17;2.25;;;1.50;;
58972;SDS011;44750;52.040;7.472;2023-08-06T16:45:17;0.80;;;0.80;;
58972;SDS011;44750;52.040;7.472;2023-08-06T16:50:20;0.65;;;0.57;;
58972;SDS011;44750;52.040;7.472;2023-08-06T16:55:20;0.80;;;0.80;;
58972;SDS011;44750;52.040;7.472;2023-08-06T17:00:20;4.60;;;0.75;;
58972;SDS011;44750;52.040;7.472;2023-08-06T17:05:21;0.95;;;0.55;;
58972;SDS011;44750;52.040;7.472;2023-08-06T17:10:21;1.08;;;0.80;;
58972;SDS011;44750;52.040;7.472;2023-08-06T17:15:22;1.30;;;0.82;;
58972;SDS011;44750;52.040;7.472;2023-08-06T17:20:23;1.20;;;1.05;;
58972;SDS011;44750;52.040;7.472;2023-08-06T17:25:23;1.33;;;0.90;;
58972;SDS011;44750;52.040;7.472;2023-08-06T17:30:23;1.02;;;0.82;;
58972;SDS011;44750;52.040;7.472;2023-08-06T17:35:24;1.05;;;0.95;;
58972;SDS011;44750;52.040;7.472;2023-08-06T17:40:25;0.52;;;0.52;;
58972;SDS011;44750;52.040;7.472;2023-08-06T17:45:26;0.70;;;0.68;;
58972;SDS011;44750;52.040;7.472;2023-08-06T17:50:26;0.55;;;0.55;;
58972;SDS011;44750;52.040;7.472;2023-08-06T17:55:46;3.25;;;0.82;;
58972;SDS011;44750;52.040;7.472;2023-08-06T18:00:46;0.63;;;0.60;;
58972;SDS011;44750;52.040;7.472;2023-08-06T18:05:53;4.57;;;0.75;;
58972;SDS011;44750;52.040;7.472;2023-08-06T18:10:57;0.50;;;0.50;;
58972;SDS011;44750;52.040;7.472;2023-08-06T18:15:57;10.05;;;1.00;;
58972;SDS011;44750;52.040;7.472;2023-08-06T18:20:57;1.60;;;1.00;;
58972;SDS011;44750;52.040;7.472;2023-08-06T18:25:57;1.55;;;1.02;;
58972;SDS011;44750;52.040;7.472;2023-08-06T18:30:58;0.80;;;0.80;;
58972;SDS011;44750;52.040;7.472;2023-08-06T18:35:58;1.95;;;1.20;;
58972;SDS011;44750;52.040;7.472;2023-08-06T18:40:58;1.70;;;1.52;;
58972;SDS011;44750;52.040;7.472;2023-08-06T18:45:59;1.77;;;1.45;;
58972;SDS011;44750;52.040;7.472;2023-08-06T18:50:59;2.03;;;1.50;;
58972;SDS011;44750;52.040;7.472;2023-08-06T18:55:59;1.20;;;1.10;;
58972;SDS011;44750;52.040;7.472;2023-08-06T19:01:00;2.15;;;0.90;;
58972;SDS011;44750;52.040;7.472;2023-08-06T19:06:00;2.67;;;1.00;;
58972;SDS011;44750;52.040;7.472;2023-08-06T19:11:01;3.30;;;1.27;;
58972;SDS011;44750;52.040;7.472;2023-08-06T19:16:02;1.17;;;0.82;;
58972;SDS011;44750;52.040;7.472;2023-08-06T19:21:02;1.47;;;1.23;;
58972;SDS011;44750;52.040;7.472;2023-08-06T19:26:02;1.40;;;0.70;;
58972;SDS011;44750;52.040;7.472;2023-08-06T19:31:03;1.17;;;0.85;;
58972;SDS011;44750;52.040;7.472;2023-08-06T19:36:03;4.78;;;1.30;;
58972;SDS011;44750;52.040;7.472;2023-08-06T19:41:07;1.30;;;0.70;;
58972;SDS011;44750;52.040;7.472;2023-08-06T19:46:08;1.33;;;0.90;;
58972;SDS011;44750;52.040;7.472;2023-08-06T19:51:08;1.00;;;0.73;;
58972;SDS011;44750;52.040;7.472;2023-08-06T19:56:09;1.00;;;0.65;;
58972;SDS011;44750;52.040;7.472;2023-08-06T20:01:09;1.27;;;0.70;;
58972;SDS011;44750;52.040;7.472;2023-08-06T20:06:09;0.60;;;0.40;;
58972;SDS011;44750;52.040;7.472;2023-08-06T20:11:10;0.68;;;0.40;;
58972;SDS011;44750;52.040;7.472;2023-08-06T20:16:10;0.80;;;0.60;;
58972;SDS011;44750;52.040;7.472;2023-08-06T20:21:10;0.52;;;0.40;;
58972;SDS011;44750;52.040;7.472;2023-08-06T20:26:10;2.22;;;0.57;;
58972;SDS011;44750;52.040;7.472;2023-08-06T20:31:10;3.45;;;0.73;;
58972;SDS011;44750;52.040;7.472;2023-08-06T20:36:11;0.63;;;0.20;;
58972;SDS011;44750;52.040;7.472;2023-08-06T20:41:11;1.17;;;0.52;;
58972;SDS011;44750;52.040;7.472;2023-08-06T20:46:11;0.75;;;0.40;;
58972;SDS011;44750;52.040;7.472;2023-08-06T20:51:11;0.65;;;0.50;;
58972;SDS011;44750;52.040;7.472;2023-08-06T20:56:12;4.10;;;0.60;;
58972;SDS011;44750;52.040;7.472;2023-08-06T21:01:12;0.85;;;0.55;;
58972;SDS011;44750;52.040;7.472;2023-08-06T21:06:12;1.83;;;0.70;;
58972;SDS011;44750;52.040;7.472;2023-08-06T21:11:12;0.80;;;0.40;;
58972;SDS011;44750;52.040;7.472;2023-08-06T21:16:12;0.40;;;0.40;;
58972;SDS011;44750;52.040;7.472;2023-08-06T21:21:13;1.50;;;0.90;;
58972;SDS011;44750;52.040;7.472;2023-08-06T21:26:13;0.50;;;0.40;;
58972;SDS011;44750;52.040;7.472;2023-08-06T21:31:13;1.23;;;0.73;;
58972;SDS011;44750;52.040;7.472;2023-08-06T21:36:13;1.15;;;0.60;;
58972;SDS011;44750;52.040;7.472;2023-08-06T21:41:14;0.88;;;0.75;;
58972;SDS011;44750;52.040;7.472;2023-08-06T21:46:16;0.80;;;0.50;;
58972;SDS011;44750;52.040;7.472;2023-08-06T21:51:18;9.23;;;0.93;;
58972;SDS011;44750;52.040;7.472;2023-08-06T21:56:19;1.88;;;0.68;;
58972;SDS011;44750;52.040;7.472;2023-08-06T22:01:19;2.40;;;0.55;;
58972;SDS011;44750;52.040;7.472;2023-08-06T22:06:20;0.80;;;0.60;;
58972;SDS011;44750;52.040;7.472;2023-08-06T22:11:20;1.02;;;0.73;;
58972;SDS011;44750;52.040;7.472;2023-08-06T22:16:26;1.48;;;0.70;;
58972;SDS011;44750;52.040;7.472;2023-08-06T22:21:26;2.70;;;0.82;;
58972;SDS011;44750;52.040;7.472;2023-08-06T22:26:26;1.30;;;0.70;;
58972;SDS011;44750;52.040;7.472;2023-08-06T22:31:27;1.17;;;0.77;;
58972;SDS011;44750;52.040;7.472;2023-08-06T22:36:27;2.53;;;1.00;;
58972;SDS011;44750;52.040;7.472;2023-08-06T22:41:27;0.98;;;0.65;;
58972;SDS011;44750;52.040;7.472;2023-08-06T22:46:27;1.23;;;0.75;;
58972;SDS011;44750;52.040;7.472;2023-08-06T22:51:28;0.73;;;0.60;;
58972;SDS011;44750;52.040;7.472;2023-08-06T22:56:28;3.05;;;0.73;;
58972;SDS011;44750;52.040;7.472;2023-08-06T23:01:28;1.23;;;0.68;;
58972;SDS011;44750;52.040;7.472;2023-08-06T23:06:28;1.48;;;0.82;;
58972;SDS011;44750;52.040;7.472;2023-08-06T23:11:29;0.80;;;0.68;;
58972;SDS011;44750;52.040;7.472;2023-08-06T23:16:29;0.93;;;0.80;;
58972;SDS011;44750;52.040;7.472;2023-08-06T23:21:29;2.67;;;1.13;;
58972;SDS011;44750;52.040;7.472;2023-08-06T23:26:30;1.08;;;0.80;;
58972;SDS011;44750;52.040;7.472;2023-08-06T23:31:30;2.85;;;1.20;;
58972;SDS011;44750;52.040;7.472;2023-08-06T23:36:30;4.53;;;0.93;;
58972;SDS011;44750;52.040;7.472;2023-08-06T23:41:30;1.40;;;0.68;;
58972;SDS011;44750;52.040;7.472;2023-08-06T23:46:30;1.20;;;0.82;;
58972;SDS011;44750;52.040;7.472;2023-08-06T23:51:31;0.50;;;0.50;;
58972;SDS011;44750;52.040;7.472;2023-08-06T23:56:31;1.58;;;0.73;;
